Pierce City, Missouri
Current Conditions -  °F | °C
As of 4:55 AM on Friday 21 Nov 2014 (Local Time) from KHFJ Reporting Station
Overcast Overcast  
Wind Chill: 33°   Ceiling: 1200
Heat Index: 41°   Visibility: 10mi
Dew Point: 28°   Wind: 14mph
Humidity: 61%   Direction: 110°ESE
Pressure: 30.17"   Gusts: 21mph
Location:  36.95°N, 94°W
Report Text: KHFJ 211055Z AUTO 11012G18KT 10SM OVC012 05/M02 A3017 RMK AO2
Loading
Personal Weather Stations






























Interactive Weather Map New forecast layout! Learn more

10-Day Weather Forecast

Advertisements
Track Severe Weather on mobile